首页
METAR-TAF:

METAR-TAF

机场 :

孔戈尼亚斯/圣保罗机场

聖保羅, 圣保罗州, 巴西

纬度: 23-37S, 经度: 046-39W, 海拔: 803米

当前天气观测

该预报发布于14分钟前的21:00 UTC
风速7节,风向东南
温度 16°C
湿度 82%
气压 1028 hPa
能见度10公里或以上
散云层高于700英尺
阴天层高于900英尺

METAR: SBSP 182100Z 13007KT 9999 SCT007 OVC009 16/13 Q1028

时间: 18:14 (21:14 UTC)

预报

该预报发布于6小时和14分钟前的15:00 UTC
预报有效从18日的 18点(UTC)到 19日的 18点(UTC)
风速6节,风向南转南东
能见度10公里或以上
多云层高于3000英尺
成为
从 18日的 18点(UTC)到 18日的 20点(UTC)
能見度: 8000
阴天层高于500英尺
几率 40%
从 19日的 06点(UTC)到 19日的 10点(UTC)
能見度: 3000
阴天层高于300英尺
轻雾
成为
从 19日的 10点(UTC)到 19日的 12点(UTC)
风速5节,风向
多云层高于900英尺
成为
从 19日的 12点(UTC)到 19日的 14点(UTC)
多云层高于2000英尺
成为
从 19日的 14点(UTC)到 19日的 16点(UTC)
能见度10公里或以上
散云层高于2500英尺

TAF: SBSP 181500Z 1818/1918 16006KT 9999 BKN030 TN14/1908Z TX23/1917Z BECMG 1818/1820 8000 OVC005 PROB40 1906/1910 3000 BR OVC003 BECMG 1910/1912 10005KT BKN009 BECMG 1912/1914 BKN020 BECMG 1914/1916 9999 SCT025 RMK PGH

超过4000个机场的气象观测和天气预报(METAR&TAF报告)。

可查询的气象台以黄色和红色小点在地图上表示。

将鼠标移到小点上方,可查看气象台名称。

然后点击查看天气观测和预报。

如需切换地图:点击带黑十字的绿色按钮放大地图;点击带横线的绿色按钮缩小地图;或者点击绿色箭头查看邻近地区的地图。


METAR-TAF: